Saint Charles, South Dakota
Current Conditions -  °F | °C
As of 4:53 PM on Thursday 18 Dec 2014 (Local Time) from KICR Reporting Station
Overcast Overcast  
Wind Chill: 24°   Ceiling: 1200
Heat Index: 30°   Visibility: 10mi
Dew Point: 24°   Wind: 6mph
Humidity: 79%   Direction: 190°S
Pressure: 30.08"   Gusts: NA
Location:  43.09°N, 99.1°W
Report Text: KICR 182253Z AUTO 19005KT 10SM OVC012 M01/M04 A3008 RMK AO2 SLP210 T10111044
Loading
Personal Weather Stations






























Interactive Weather Map New forecast layout! Learn more

10-Day Weather Forecast

Advertisements
Track Severe Weather on mobile